createdAt,value
2023-03-20T00:00:51.764Z,101159.78
2023-03-20T00:03:18.419Z,101163.19
2023-03-20T00:05:45.204Z,101158.25
2023-03-20T00:08:12.584Z,101155.72
2023-03-20T00:10:43.050Z,101159.09
2023-03-20T00:13:17.830Z,101159.19
2023-03-20T00:15:45.145Z,101158.31
2023-03-20T00:18:21.765Z,101160.09
2023-03-20T00:20:53.537Z,101158.44
2023-03-20T00:23:20.680Z,101153.38
2023-03-20T00:25:47.397Z,101149.19
2023-03-20T00:28:39.078Z,101151.72
2023-03-20T00:31:16.560Z,101139.06
2023-03-20T00:33:44.117Z,101142.47
2023-03-20T00:36:10.814Z,101131.59
2023-03-20T00:38:37.482Z,101125.75
2023-03-20T00:41:20.234Z,101134.22
2023-03-20T00:43:49.512Z,101135.19
2023-03-20T00:46:16.491Z,101131.78
2023-03-20T00:48:43.539Z,101130.13
2023-03-20T00:51:10.476Z,101135.28
2023-03-20T00:53:37.596Z,101133.63
2023-03-20T00:56:05.014Z,101137.06
2023-03-20T00:58:31.783Z,101135.41
2023-03-20T01:00:58.581Z,101138.78
2023-03-20T01:03:27.009Z,101137.13
2023-03-20T01:05:53.685Z,101130.34
2023-03-20T01:08:23.081Z,101131.38
2023-03-20T01:10:55.695Z,101131.38
2023-03-20T01:13:30.515Z,101134.81
2023-03-20T01:15:57.997Z,101128.00
2023-03-20T01:18:26.877Z,101128.88
2023-03-20T01:20:53.836Z,101130.63
2023-03-20T01:23:22.921Z,101133.16
2023-03-20T01:25:50.162Z,101132.28
2023-03-20T01:28:20.166Z,101144.94
2023-03-20T01:30:47.262Z,101135.56
2023-03-20T01:33:17.443Z,101141.63
2023-03-20T01:35:45.137Z,101141.63
2023-03-20T01:38:20.478Z,101138.22
2023-03-20T01:40:58.406Z,101145.13
2023-03-20T01:43:27.372Z,101134.91
2023-03-20T01:46:09.185Z,101140.84
2023-03-20T01:48:57.857Z,101140.94
2023-03-20T01:51:29.225Z,101140.06
2023-03-20T01:54:13.167Z,101133.28
2023-03-20T01:56:46.280Z,101137.63
2023-03-20T01:59:18.279Z,101144.31
2023-03-20T02:01:45.376Z,101141.91
2023-03-20T02:04:14.064Z,101142.78
2023-03-20T02:06:42.207Z,101135.19
2023-03-20T02:09:08.890Z,101142.13
2023-03-20T02:11:37.603Z,101138.69
2023-03-20T02:14:04.958Z,101130.13
2023-03-20T02:16:31.664Z,101135.41
2023-03-20T02:18:59.020Z,101141.34
2023-03-20T02:21:47.242Z,101140.53
2023-03-20T02:24:45.998Z,101136.44
2023-03-20T02:27:34.682Z,101133.06
2023-03-20T02:30:43.041Z,101123.91
2023-03-20T02:33:41.963Z,101124.03
2023-03-20T02:36:40.862Z,101119.84
2023-03-20T02:39:35.663Z,101130.81
2023-03-20T02:42:43.702Z,101125.00
2023-03-20T02:45:22.535Z,101128.41
2023-03-20T02:47:58.722Z,101120.91
2023-03-20T02:50:44.580Z,101125.06
2023-03-20T02:53:24.613Z,101124.38
2023-03-20T02:56:06.599Z,101126.03
2023-03-20T02:58:46.735Z,101115.25
2023-03-20T03:01:19.742Z,101120.22
2023-03-20T03:03:52.869Z,101114.25
2023-03-20T03:06:29.598Z,101117.59
2023-03-20T03:09:18.789Z,101122.53
2023-03-20T03:11:50.385Z,101120.00
2023-03-20T03:14:30.492Z,101120.13
2023-03-20T03:17:01.536Z,101121.00
2023-03-20T03:19:29.384Z,101115.16
2023-03-20T03:21:56.240Z,101111.75
2023-03-20T03:24:41.201Z,101117.69
2023-03-20T03:27:34.307Z,101107.56
2023-03-20T03:30:25.964Z,101109.91
2023-03-20T03:33:07.239Z,101116.78
2023-03-20T03:35:34.494Z,101109.22
2023-03-20T03:38:10.194Z,101110.88
2023-03-20T03:40:49.507Z,101109.22
2023-03-20T03:43:29.933Z,101103.22
2023-03-20T03:46:01.672Z,101100.47
2023-03-20T03:48:37.069Z,101103.69
2023-03-20T03:51:11.285Z,101108.63
2023-03-20T03:53:48.939Z,101107.00
2023-03-20T03:56:20.196Z,101111.16
2023-03-20T03:58:56.608Z,101102.72
2023-03-20T04:01:24.464Z,101097.53
2023-03-20T04:03:56.189Z,101099.78
2023-03-20T04:06:23.156Z,101095.69
2023-03-20T04:08:49.832Z,101091.53
2023-03-20T04:11:21.519Z,101099.78
2023-03-20T04:13:50.901Z,101099.69
2023-03-20T04:16:19.021Z,101101.25
2023-03-20T04:18:46.283Z,101103.56
2023-03-20T04:21:13.530Z,101103.28
2023-03-20T04:23:40.328Z,101100.56
2023-03-20T04:26:07.580Z,101103.94
2023-03-20T04:28:34.394Z,101088.72
2023-03-20T04:31:02.224Z,101093.66
2023-03-20T04:33:29.416Z,101099.69
2023-03-20T04:35:56.636Z,101107.28
2023-03-20T04:38:24.435Z,101100.44
2023-03-20T04:40:51.540Z,101093.66
2023-03-20T04:43:18.401Z,101100.38
2023-03-20T04:45:45.104Z,101106.97
2023-03-20T04:48:11.906Z,101104.34
2023-03-20T04:50:38.798Z,101094.81
2023-03-20T04:53:05.834Z,101106.69
2023-03-20T04:55:32.703Z,101105.78
2023-03-20T04:57:59.379Z,101105.78
2023-03-20T05:00:26.156Z,101106.56
2023-03-20T05:02:52.811Z,101100.66
2023-03-20T05:05:19.449Z,101090.44
2023-03-20T05:07:46.109Z,101089.66
2023-03-20T05:10:12.793Z,101090.53
2023-03-20T05:12:39.538Z,101092.19
2023-03-20T05:15:06.802Z,101085.38
2023-03-20T05:17:33.492Z,101086.16
2023-03-20T05:20:00.216Z,101089.44
2023-03-20T05:22:26.848Z,101088.59
2023-03-20T05:24:53.532Z,101087.72
2023-03-20T05:27:20.199Z,101085.75
2023-03-20T05:29:46.927Z,101097.72
2023-03-20T05:32:13.615Z,101095.97
2023-03-20T05:34:40.504Z,101094.22
2023-03-20T05:37:07.145Z,101092.47
2023-03-20T05:39:33.824Z,101095.88
2023-03-20T05:42:00.603Z,101105.97
2023-03-20T05:44:27.264Z,101105.97
2023-03-20T05:46:53.961Z,101114.31
2023-03-20T05:49:20.661Z,101117.63
2023-03-20T05:51:47.289Z,101120.16
2023-03-20T05:54:14.051Z,101107.22
2023-03-20T05:56:40.890Z,101119.97
2023-03-20T05:59:07.607Z,101121.50
2023-03-20T06:01:34.251Z,101125.88
2023-03-20T06:04:01.043Z,101126.75
2023-03-20T06:06:27.784Z,101132.69
2023-03-20T06:08:54.456Z,101131.81
2023-03-20T06:11:21.128Z,101140.25
2023-03-20T06:13:47.867Z,101143.59
2023-03-20T06:16:14.567Z,101146.09
2023-03-20T06:18:41.288Z,101145.44
2023-03-20T06:21:08.018Z,101134.53
2023-03-20T06:23:34.775Z,101138.72
2023-03-20T06:26:01.444Z,101155.66
2023-03-20T06:28:28.106Z,101149.81
2023-03-20T06:30:54.869Z,101155.72
2023-03-20T06:33:21.908Z,101148.16
2023-03-20T06:35:49.224Z,101146.53
2023-03-20T06:41:13.564Z,101146.53
2023-03-20T06:43:45.618Z,101151.56
2023-03-20T06:46:12.356Z,101145.72
2023-03-20T06:48:39.065Z,101146.53
2023-03-20T06:51:06.205Z,101139.69
2023-03-20T06:53:32.969Z,101141.47
2023-03-20T06:55:59.706Z,101150.22
2023-03-20T06:58:27.015Z,101151.94
2023-03-20T07:00:54.585Z,101147.88
2023-03-20T07:03:21.315Z,101148.84
2023-03-20T07:05:48.447Z,101157.53
2023-03-20T07:08:15.195Z,101162.66
2023-03-20T07:10:42.127Z,101161.72
2023-03-20T07:13:11.048Z,101155.97
2023-03-20T07:15:37.957Z,101158.59
2023-03-20T07:18:04.829Z,101158.69
2023-03-20T07:20:31.521Z,101157.84
2023-03-20T07:22:58.196Z,101158.00
2023-03-20T07:25:39.432Z,101164.06
2023-03-20T07:28:06.308Z,101164.16
2023-03-20T07:30:33.090Z,101166.78
2023-03-20T07:32:59.806Z,101172.03
2023-03-20T07:35:26.774Z,101164.47
2023-03-20T07:37:53.470Z,101156.88
2023-03-20T07:40:20.437Z,101167.19
2023-03-20T07:42:50.059Z,101157.94
2023-03-20T07:45:18.235Z,101171.56
2023-03-20T07:47:48.662Z,101179.34
2023-03-20T07:50:16.477Z,101177.59
2023-03-20T07:52:47.606Z,101178.38
2023-03-20T07:55:17.942Z,101177.69
2023-03-20T07:57:45.311Z,101167.47
2023-03-20T08:00:12.645Z,101168.44
2023-03-20T08:02:39.554Z,101171.78
2023-03-20T08:05:06.593Z,101169.13
2023-03-20T08:07:33.359Z,101177.88
2023-03-20T08:10:00.141Z,101179.44
2023-03-20T08:12:27.265Z,101167.59
2023-03-20T08:14:54.026Z,101178.56
2023-03-20T08:17:21.892Z,101182.94
2023-03-20T08:19:48.670Z,101188.00
2023-03-20T08:22:15.444Z,101187.03
2023-03-20T08:24:42.214Z,101192.19
2023-03-20T08:27:08.923Z,101185.41
2023-03-20T08:29:35.990Z,101196.38
2023-03-20T08:32:02.735Z,101200.75
2023-03-20T08:34:31.341Z,101198.34
2023-03-20T08:36:58.069Z,101200.06
2023-03-20T08:39:24.954Z,101200.19
2023-03-20T08:41:51.740Z,101201.06
2023-03-20T08:44:18.485Z,101198.72
2023-03-20T08:46:46.418Z,101206.41
2023-03-20T08:49:13.584Z,101209.63
2023-03-20T08:51:40.292Z,101202.91
2023-03-20T08:54:07.113Z,101205.53
2023-03-20T08:56:33.808Z,101203.75
2023-03-20T08:59:00.541Z,101206.41
2023-03-20T09:01:41.780Z,101208.25
2023-03-20T09:04:14.434Z,101201.47
2023-03-20T09:06:41.658Z,101201.63
2023-03-20T09:09:08.339Z,101205.94
2023-03-20T09:11:34.854Z,101203.31
2023-03-20T09:14:01.340Z,101205.84
2023-03-20T09:16:28.145Z,101204.19
2023-03-20T09:18:55.304Z,101194.06
2023-03-20T09:21:21.897Z,101204.06
2023-03-20T09:23:48.443Z,101209.03
2023-03-20T09:26:14.944Z,101203.19
2023-03-20T09:28:41.436Z,101204.19
2023-03-20T09:31:07.981Z,101205.25
2023-03-20T09:33:34.477Z,101207.09
2023-03-20T09:36:01.224Z,101206.03
2023-03-20T09:38:27.840Z,101205.25
2023-03-20T09:40:58.407Z,101201.75
2023-03-20T09:43:47.025Z,101208.84
2023-03-20T09:46:49.306Z,101211.38
2023-03-20T09:49:53.675Z,101208.94
2023-03-20T09:52:41.009Z,101211.66
2023-03-20T09:55:21.713Z,101204.97
2023-03-20T09:57:52.538Z,101215.41
2023-03-20T10:00:22.304Z,101216.56
2023-03-20T10:02:56.813Z,101220.16
2023-03-20T10:05:30.293Z,101213.75
2023-03-20T10:08:01.666Z,101209.53
2023-03-20T10:10:39.745Z,101225.59
2023-03-20T10:13:30.646Z,101226.56
2023-03-20T10:16:09.131Z,101234.16
2023-03-20T10:18:40.777Z,101228.22
2023-03-20T10:21:18.495Z,101225.59
2023-03-20T10:24:00.787Z,101218.91
2023-03-20T10:26:28.843Z,101214.78
2023-03-20T10:28:59.100Z,101219.19
2023-03-20T10:31:51.580Z,101221.03
2023-03-20T10:34:50.196Z,101207.81
2023-03-20T10:37:36.564Z,101199.53
2023-03-20T10:40:31.830Z,101186.19
2023-03-20T10:43:14.432Z,101186.75
2023-03-20T10:46:13.302Z,101189.88
2023-03-20T10:48:47.837Z,101189.41
2023-03-20T10:51:18.008Z,101195.59
2023-03-20T10:53:51.715Z,101183.81
2023-03-20T10:56:36.119Z,101177.19
2023-03-20T10:59:08.610Z,101175.63
2023-03-20T11:01:36.047Z,101173.19
2023-03-20T11:04:02.931Z,101181.06
2023-03-20T11:06:33.076Z,101181.13
2023-03-20T11:09:12.620Z,101174.50
2023-03-20T11:11:44.300Z,101166.03
2023-03-20T11:14:18.759Z,101167.00
2023-03-20T11:16:53.723Z,101177.84
2023-03-20T11:19:22.210Z,101171.22
2023-03-20T11:21:49.978Z,101172.34
2023-03-20T11:24:23.220Z,101176.56
2023-03-20T11:26:51.381Z,101176.28
2023-03-20T11:29:31.246Z,101172.56
2023-03-20T11:32:07.699Z,101163.06
2023-03-20T11:34:37.921Z,101158.97
2023-03-20T11:37:20.206Z,101152.31
2023-03-20T11:39:58.594Z,101145.78
2023-03-20T11:42:28.585Z,101147.03
2023-03-20T11:45:04.980Z,101150.09
2023-03-20T11:47:35.591Z,101146.97
2023-03-20T11:50:05.895Z,101140.72
2023-03-20T11:52:38.958Z,101143.41
2023-03-20T11:55:22.767Z,101139.47
2023-03-20T11:57:49.566Z,101137.19
2023-03-20T12:00:29.264Z,101140.97
2023-03-20T12:02:55.928Z,101137.72
2023-03-20T12:05:36.583Z,101144.47
2023-03-20T12:08:16.168Z,101145.16
2023-03-20T12:10:45.961Z,101137.13
2023-03-20T12:13:24.612Z,101147.28
2023-03-20T12:15:57.554Z,101140.97
2023-03-20T12:18:38.461Z,101139.31
2023-03-20T12:21:14.976Z,101146.31
2023-03-20T12:24:02.024Z,101139.56
2023-03-20T12:26:47.693Z,101147.00
2023-03-20T12:29:38.669Z,101141.41
2023-03-20T12:32:16.632Z,101137.31
2023-03-20T12:35:26.597Z,101136.81
2023-03-20T12:37:53.299Z,101142.91
2023-03-20T12:40:31.494Z,101139.94
2023-03-20T12:43:15.200Z,101141.25
2023-03-20T12:45:51.156Z,101135.69
2023-03-20T12:48:39.790Z,101140.81
2023-03-20T12:51:24.890Z,101128.31
2023-03-20T12:54:23.452Z,101130.06
2023-03-20T12:57:11.255Z,101127.63
2023-03-20T12:59:54.627Z,101130.16
2023-03-20T13:02:33.628Z,101126.72
2023-03-20T13:05:23.182Z,101123.00
2023-03-20T13:08:13.220Z,101120.97
2023-03-20T13:10:42.206Z,101115.78
2023-03-20T13:13:28.378Z,101110.31
2023-03-20T13:16:15.233Z,101108.53
2023-03-20T13:19:02.994Z,101112.81
2023-03-20T13:21:46.403Z,101104.81
2023-03-20T13:24:23.622Z,101105.06
2023-03-20T13:27:06.900Z,101111.28
2023-03-20T13:29:54.800Z,101109.78
2023-03-20T13:33:00.226Z,101096.38
2023-03-20T13:35:51.372Z,101094.63
2023-03-20T13:38:30.262Z,101097.88
2023-03-20T13:41:03.161Z,101100.41
2023-03-20T13:43:36.112Z,101101.13
2023-03-20T13:46:11.861Z,101092.53
2023-03-20T13:48:40.041Z,101103.41
2023-03-20T13:51:07.147Z,101099.03
2023-03-20T13:53:46.599Z,101094.75
2023-03-20T13:56:21.586Z,101096.31
2023-03-20T13:59:34.512Z,101093.72
2023-03-20T14:02:17.851Z,101089.34
2023-03-20T14:04:45.770Z,101082.41
2023-03-20T14:07:36.584Z,101085.34
2023-03-20T14:10:21.747Z,101088.31
2023-03-20T14:12:50.659Z,101083.09
2023-03-20T14:15:19.880Z,101077.84
2023-03-20T14:17:48.829Z,101085.19
2023-03-20T14:20:32.535Z,101083.34
2023-03-20T14:22:59.569Z,101078.22
2023-03-20T14:25:29.461Z,101082.47
2023-03-20T14:28:00.552Z,101080.91
2023-03-20T14:30:51.258Z,101081.00
2023-03-20T14:33:17.889Z,101080.91
2023-03-20T14:36:11.008Z,101085.81
2023-03-20T14:38:59.686Z,101078.00
2023-03-20T14:42:00.610Z,101082.22
2023-03-20T14:44:44.795Z,101079.69
2023-03-20T14:47:40.678Z,101078.72
2023-03-20T14:50:14.690Z,101080.22
2023-03-20T14:52:44.446Z,101074.19
2023-03-20T14:55:19.957Z,101073.13
2023-03-20T14:57:56.177Z,101073.13
2023-03-20T15:00:30.078Z,101074.81
2023-03-20T15:03:07.058Z,101075.66
2023-03-20T15:05:36.799Z,101075.66
2023-03-20T15:08:08.921Z,101079.88
2023-03-20T15:10:44.025Z,101069.56
2023-03-20T15:13:11.547Z,101073.59
2023-03-20T15:15:38.258Z,101071.16
2023-03-20T15:18:11.714Z,101077.84
2023-03-20T15:20:38.481Z,101079.53
2023-03-20T15:23:06.117Z,101076.81
2023-03-20T15:25:38.401Z,101081.09
2023-03-20T15:28:07.236Z,101067.56
2023-03-20T15:30:39.709Z,101078.66
2023-03-20T15:33:08.011Z,101070.19
2023-03-20T15:35:34.738Z,101078.75
2023-03-20T15:38:07.211Z,101072.09
2023-03-20T15:40:50.036Z,101059.25
2023-03-20T15:43:23.968Z,101059.25
2023-03-20T15:46:02.864Z,101060.19
2023-03-20T15:48:36.818Z,101065.97
2023-03-20T15:51:05.896Z,101059.94
2023-03-20T15:53:36.557Z,101071.75
2023-03-20T15:56:17.855Z,101069.97
2023-03-20T15:58:46.752Z,101063.00
2023-03-20T16:01:19.847Z,101061.41
2023-03-20T16:03:47.105Z,101064.66
2023-03-20T16:06:17.786Z,101060.44
2023-03-20T16:08:46.706Z,101065.53
2023-03-20T16:11:15.822Z,101064.75
2023-03-20T16:13:48.378Z,101063.19
2023-03-20T16:16:19.369Z,101069.97
2023-03-20T16:18:48.021Z,101066.69
2023-03-20T16:21:53.152Z,101055.69
2023-03-20T16:24:25.639Z,101059.78
2023-03-20T16:26:53.158Z,101057.25
2023-03-20T16:29:22.541Z,101069.03
2023-03-20T16:32:02.087Z,101069.66
2023-03-20T16:34:39.592Z,101069.41
2023-03-20T16:37:21.546Z,101069.41
2023-03-20T16:39:48.050Z,101065.69
2023-03-20T16:42:23.910Z,101050.22
2023-03-20T16:44:57.924Z,101050.06
2023-03-20T16:47:36.047Z,101045.44
2023-03-20T16:50:11.046Z,101047.88
2023-03-20T16:52:40.629Z,101049.34
2023-03-20T16:55:13.550Z,101052.31
2023-03-20T16:57:40.149Z,101055.13
2023-03-20T17:00:20.669Z,101053.94
2023-03-20T17:02:52.273Z,101058.03
2023-03-20T17:05:21.917Z,101066.34
2023-03-20T17:07:50.209Z,101070.38
2023-03-20T17:10:16.660Z,101066.94
2023-03-20T17:12:45.249Z,101064.94
2023-03-20T17:15:16.754Z,101061.22
2023-03-20T17:17:43.696Z,101062.09
2023-03-20T17:20:28.830Z,101072.22
2023-03-20T17:22:55.608Z,101071.16
2023-03-20T17:25:22.388Z,101072.72
2023-03-20T17:27:49.148Z,101075.94
2023-03-20T17:30:23.957Z,101078.47
2023-03-20T17:32:51.409Z,101079.97
2023-03-20T17:35:18.495Z,101081.59
2023-03-20T17:37:45.611Z,101090.94
2023-03-20T17:40:22.848Z,101088.22
2023-03-20T17:42:49.722Z,101094.94
2023-03-20T17:45:20.530Z,101091.38
2023-03-20T17:47:48.265Z,101100.69
2023-03-20T17:50:27.349Z,101098.16
2023-03-20T17:52:54.921Z,101094.75
2023-03-20T17:55:21.603Z,101093.78
2023-03-20T17:57:48.738Z,101093.63
2023-03-20T18:00:19.293Z,101090.13
2023-03-20T18:02:46.457Z,101092.66
2023-03-20T18:05:13.302Z,101096.81
2023-03-20T18:07:40.325Z,101095.19
2023-03-20T18:10:19.193Z,101096.16
2023-03-20T18:12:45.894Z,101091.69
2023-03-20T18:15:12.616Z,101099.25
2023-03-20T18:17:39.343Z,101094.97
2023-03-20T18:20:06.777Z,101110.16
2023-03-20T18:22:33.546Z,101105.88
2023-03-20T18:25:00.301Z,101106.75
2023-03-20T18:27:27.086Z,101105.88
2023-03-20T18:29:53.794Z,101106.75
2023-03-20T18:32:20.576Z,101103.34
2023-03-20T18:34:47.281Z,101110.84
2023-03-20T18:37:15.102Z,101101.59
2023-03-20T18:39:41.746Z,101102.16
2023-03-20T18:42:09.108Z,101110.75
2023-03-20T18:44:35.761Z,101102.16
2023-03-20T18:47:03.073Z,101103.75
2023-03-20T18:49:31.081Z,101107.94
2023-03-20T18:51:57.785Z,101104.41
2023-03-20T18:54:26.055Z,101099.00
2023-03-20T18:56:54.321Z,101103.16
2023-03-20T18:59:22.044Z,101107.34
2023-03-20T19:01:51.674Z,101113.09
2023-03-20T19:04:23.067Z,101110.47
2023-03-20T19:06:50.691Z,101111.16
2023-03-20T19:09:18.750Z,101112.72
2023-03-20T19:11:45.439Z,101105.81
2023-03-20T19:14:13.304Z,101110.00
2023-03-20T19:16:41.156Z,101108.28
2023-03-20T19:19:08.987Z,101102.81
2023-03-20T19:21:35.818Z,101109.03
2023-03-20T19:24:05.033Z,101106.09
2023-03-20T19:26:33.447Z,101105.06
2023-03-20T19:29:01.402Z,101112.22
2023-03-20T19:31:28.421Z,101111.16
2023-03-20T19:33:56.611Z,101104.47
2023-03-20T19:36:32.042Z,101113.03
2023-03-20T19:39:01.051Z,101114.75
2023-03-20T19:41:28.789Z,101105.44
2023-03-20T19:43:56.515Z,101105.44
2023-03-20T19:46:42.059Z,101102.00
2023-03-20T19:49:18.626Z,101104.34
2023-03-20T19:51:46.665Z,101111.16
2023-03-20T19:54:13.414Z,101105.22
2023-03-20T19:56:40.422Z,101111.16
2023-03-20T19:59:07.169Z,101107.75
2023-03-20T20:01:33.948Z,101106.09
2023-03-20T20:04:00.681Z,101108.63
2023-03-20T20:06:32.146Z,101101.72
2023-03-20T20:09:00.793Z,101106.69
2023-03-20T20:11:27.312Z,101100.44
2023-03-20T20:14:10.515Z,101098.59
2023-03-20T20:16:42.242Z,101098.41
2023-03-20T20:19:08.748Z,101098.41
2023-03-20T20:24:22.097Z,101096.75
2023-03-20T20:26:54.796Z,101094.22
2023-03-20T20:29:24.492Z,101092.56
2023-03-20T20:31:51.352Z,101094.34
2023-03-20T20:38:08.975Z,101089.97
2023-03-20T20:39:52.472Z,101094.13
2023-03-20T20:42:20.113Z,101094.13
2023-03-20T20:44:46.724Z,101098.41
2023-03-20T20:47:13.733Z,101094.81
2023-03-20T20:49:40.646Z,101098.88
2023-03-20T20:52:09.577Z,101102.09
2023-03-20T20:54:36.172Z,101101.97
2023-03-20T20:57:02.937Z,101102.66
2023-03-20T20:59:30.062Z,101098.09
2023-03-20T21:01:56.706Z,101097.97
2023-03-20T21:04:23.769Z,101099.47
2023-03-20T21:07:08.529Z,101104.28
2023-03-20T21:09:36.649Z,101099.91
2023-03-20T21:12:04.511Z,101096.41
2023-03-20T21:14:31.117Z,101111.56
2023-03-20T21:17:00.965Z,101106.31
2023-03-20T21:19:34.830Z,101111.44
2023-03-20T21:22:01.369Z,101102.81
2023-03-20T21:24:33.468Z,101115.44
2023-03-20T21:27:06.701Z,101112.13
2023-03-20T21:29:33.855Z,101108.72
2023-03-20T21:32:00.354Z,101112.06
2023-03-20T21:34:26.879Z,101107.75
2023-03-20T21:36:53.345Z,101106.09
2023-03-20T21:39:19.908Z,101112.81
2023-03-20T21:41:46.507Z,101112.06
2023-03-20T21:44:17.835Z,101109.41
2023-03-20T22:04:01.594Z,101097.53
2023-03-20T22:09:52.196Z,101098.44
2023-03-20T22:12:35.596Z,101103.50
2023-03-20T22:15:33.494Z,101104.25
2023-03-20T22:24:01.679Z,101088.03
2023-03-20T22:26:44.356Z,101094.13
2023-03-20T22:32:01.980Z,101102.59
2023-03-20T22:35:11.660Z,101099.00
2023-03-20T22:37:46.310Z,101090.56
2023-03-20T22:43:48.683Z,101095.50
2023-03-20T22:45:34.434Z,101100.44
2023-03-20T22:48:08.955Z,101092.84
2023-03-20T22:50:36.209Z,101095.50
2023-03-20T22:53:03.178Z,101089.56
2023-03-20T22:55:30.289Z,101097.16
2023-03-20T22:58:06.728Z,101088.69
2023-03-20T23:00:36.280Z,101089.66
2023-03-20T23:03:37.741Z,101089.66
2023-03-20T23:05:52.091Z,101087.13
2023-03-20T23:08:18.773Z,101091.44
2023-03-20T23:10:48.256Z,101079.47
2023-03-20T23:13:15.899Z,101084.53
2023-03-20T23:15:46.438Z,101076.94
2023-03-20T23:18:13.958Z,101072.75
2023-03-20T23:20:40.834Z,101074.50
2023-03-20T23:23:07.633Z,101075.41
2023-03-20T23:25:39.968Z,101075.41
2023-03-20T23:28:09.403Z,101070.25
2023-03-20T23:30:49.856Z,101075.28
2023-03-20T23:33:23.780Z,101075.28
2023-03-20T23:36:01.305Z,101068.69
2023-03-20T23:38:32.161Z,101066.72
2023-03-20T23:40:58.834Z,101068.69
2023-03-20T23:43:25.559Z,101066.94
2023-03-20T23:45:52.348Z,101057.31
2023-03-20T23:48:20.213Z,101065.88
2023-03-20T23:50:53.020Z,101059.28
2023-03-20T23:53:21.402Z,101052.44
2023-03-20T23:55:51.575Z,101058.38
2023-03-20T23:58:19.622Z,101050.78
